This is the latest recevied weather packets stored in our database for station/object W1HS. If no packets are shown the sender has not sent any weather packets the latest 1 day(s).
| Time | Temp. | Humidity | Pressure | Rain* | Wind** | Luminosity | Snow |
|---|---|---|---|---|---|---|---|
| 1778036599 | 17.78° C | 73% | 989 hPa | 0 mm | 0.89 m/s, 248° | 0 W/m² | - |
| 1778036000 | 17.78° C | 73% | 988.8 hPa | 0 mm | 0.45 m/s, 225° | 0 W/m² | - |
| 1778035400 | 17.78° C | 73% | 988.9 hPa | 0 mm | 1.79 m/s, 180° | 0 W/m² | - |
| 1778034799 | 17.78° C | 73% | 988.8 hPa | 0 mm | 0.89 m/s, 203° | 0 W/m² | - |
| 1778034202 | 17.78° C | 73% | 988.8 hPa | 0 mm | 0.89 m/s, 225° | 0 W/m² | - |
| 1778033599 | 17.78° C | 73% | 988.8 hPa | 0 mm | 1.34 m/s, 203° | 0 W/m² | - |
| 1778033000 | 17.22° C | 73% | 988.8 hPa | 0 mm | 1.34 m/s, 203° | 0 W/m² | - |
| 1778032398 | 17.22° C | 74% | 988.4 hPa | 0 mm | 0.45 m/s, 248° | 0 W/m² | - |
| 1778031798 | 17.22° C | 75% | 988.3 hPa | 0 mm | 0.45 m/s, 225° | 0 W/m² | - |
| 1778031200 | 17.22° C | 76% | 988.3 hPa | 0 mm | 0.45 m/s, 203° | 0 W/m² | - |
| 1778030599 | 17.78° C | 74% | 988.1 hPa | 0 mm | 0.45 m/s, 203° | 0 W/m² | - |
| 1778029398 | 17.78° C | 72% | 987.9 hPa | 0 mm | 0.45 m/s, 180° | 0 W/m² | - |
| 1778028798 | 17.78° C | 72% | 987.9 hPa | 0 mm | 0.89 m/s, 203° | 0 W/m² | - |
| 1778028198 | 17.78° C | 72% | 987.7 hPa | 0 mm | 0.89 m/s, 225° | 0 W/m² | - |
| 1778022798 | 18.33° C | 72% | 987.3 hPa | 0 mm | 1.79 m/s, 293° | 7 W/m² | - |
| 1778022198 | 17.78° C | 73% | 987 hPa | 0 mm | 0.89 m/s, 293° | 16 W/m² | - |
| 1778021603 | 17.78° C | 73% | 986.9 hPa | 0 mm | 1.79 m/s, 293° | 23 W/m² | - |
| 1778021001 | 17.78° C | 74% | 986.6 hPa | 0 mm | 1.34 m/s, 315° | 18 W/m² | - |
| 1778020398 | 18.33° C | 73% | 986.4 hPa | 0 mm | 1.79 m/s, 338° | 28 W/m² | - |
| 1778019798 | 18.89° C | 70% | 986.5 hPa | 0 mm | 0.45 m/s, 315° | 18 W/m² | - |
| 1778019200 | 18.89° C | 69% | 986.1 hPa | 0 mm | 0.45 m/s, 315° | 33 W/m² | - |
| 1778018599 | 19.44° C | 65% | 985.9 hPa | 0 mm | 0.89 m/s, 293° | 11 W/m² | - |
| 1778017998 | 20° C | 64% | 985.4 hPa | 0 mm | 1.34 m/s, 23° | 47 W/m² | - |
| 1778017398 | 20° C | 62% | 985.8 hPa | 0 mm | 4.02 m/s, 293° | 130 W/m² | - |
| 1778016799 | 19.44° C | 64% | 985.4 hPa | 0 mm | 1.34 m/s, 293° | 489 W/m² | - |
* Rain latest hour (hover to see other rain measurements)
** Current wind speed in m/s (hover to see current wind gust speed)